createdAt,value
2023-03-15T00:01:12.763Z,12.87
2023-03-15T00:02:52.539Z,12.88
2023-03-15T00:04:32.314Z,12.89
2023-03-15T00:06:12.076Z,12.88
2023-03-15T00:07:51.928Z,12.88
2023-03-15T00:09:31.585Z,12.88
2023-03-15T00:11:11.346Z,12.87
2023-03-15T00:12:51.103Z,12.87
2023-03-15T00:14:30.875Z,12.87
2023-03-15T00:16:10.639Z,12.88
2023-03-15T00:17:50.536Z,12.88
2023-03-15T00:19:30.244Z,12.88
2023-03-15T00:21:09.994Z,12.88
2023-03-15T00:22:49.759Z,12.88
2023-03-15T00:24:29.451Z,12.86
2023-03-15T00:26:09.219Z,12.87
2023-03-15T00:27:49.107Z,12.87
2023-03-15T00:29:28.902Z,12.87
2023-03-15T00:31:08.532Z,12.87
2023-03-15T00:32:48.265Z,12.87
2023-03-15T00:34:28.035Z,12.87
2023-03-15T00:36:07.804Z,12.87
2023-03-15T00:37:47.606Z,12.86
2023-03-15T00:39:27.336Z,12.87
2023-03-15T00:41:07.107Z,12.87
2023-03-15T00:42:46.851Z,12.86
2023-03-15T00:44:26.732Z,12.86
2023-03-15T00:46:06.387Z,12.87
2023-03-15T00:47:46.254Z,12.86
2023-03-15T00:49:26.002Z,12.86
2023-03-15T00:51:05.690Z,12.86
2023-03-15T00:52:45.509Z,12.86
2023-03-15T00:54:25.231Z,12.87
2023-03-15T00:56:04.971Z,12.86
2023-03-15T00:57:44.771Z,12.86
2023-03-15T00:59:24.491Z,12.86
2023-03-15T01:01:04.240Z,12.86
2023-03-15T01:02:44.042Z,12.86
2023-03-15T01:04:23.797Z,12.86
2023-03-15T01:06:03.549Z,12.85
2023-03-15T01:07:43.467Z,12.85
2023-03-15T01:09:23.078Z,12.85
2023-03-15T01:11:02.840Z,12.85
2023-03-15T01:12:42.616Z,12.86
2023-03-15T01:14:22.434Z,12.85
2023-03-15T01:16:02.176Z,12.85
2023-03-15T01:17:41.991Z,12.85
2023-03-15T01:19:21.668Z,12.84
2023-03-15T01:21:01.490Z,12.86
2023-03-15T01:22:41.209Z,12.85
2023-03-15T01:24:20.983Z,12.85
2023-03-15T01:26:00.728Z,12.85
2023-03-15T01:27:40.561Z,12.84
2023-03-15T01:29:20.306Z,12.85
2023-03-15T01:31:00.017Z,12.84
2023-03-15T01:32:39.772Z,12.84
2023-03-15T01:34:19.647Z,12.84
2023-03-15T01:35:59.336Z,12.84
2023-03-15T01:37:39.098Z,12.84
2023-03-15T01:39:18.832Z,12.84
2023-03-15T01:40:58.692Z,12.84
2023-03-15T01:42:38.351Z,12.83
2023-03-15T01:44:18.114Z,12.84
2023-03-15T01:45:57.924Z,12.84
2023-03-15T01:47:37.672Z,12.84
2023-03-15T01:49:17.407Z,12.84
2023-03-15T01:50:57.211Z,12.84
2023-03-15T01:52:37.020Z,12.84
2023-03-15T01:54:16.697Z,12.82
2023-03-15T01:55:56.446Z,12.84
2023-03-15T01:57:36.232Z,12.83
2023-03-15T01:59:16.039Z,12.83
2023-03-15T02:00:55.758Z,12.83
2023-03-15T02:02:35.518Z,12.84
2023-03-15T02:04:15.301Z,12.83
2023-03-15T02:05:55.063Z,12.82
2023-03-15T02:07:34.825Z,12.82
2023-03-15T02:09:14.582Z,12.82
2023-03-15T02:10:54.327Z,12.82
2023-03-15T02:12:34.105Z,12.83
2023-03-15T02:14:13.868Z,12.82
2023-03-15T02:15:53.643Z,12.83
2023-03-15T02:17:33.408Z,12.82
2023-03-15T02:19:13.152Z,12.82
2023-03-15T02:20:52.982Z,12.82
2023-03-15T02:22:32.685Z,12.82
2023-03-15T02:24:12.438Z,12.82
2023-03-15T02:25:52.205Z,12.82
2023-03-15T02:27:32.009Z,12.82
2023-03-15T02:29:11.767Z,12.82
2023-03-15T02:30:51.522Z,12.82
2023-03-15T02:32:31.290Z,12.82
2023-03-15T02:34:11.076Z,12.82
2023-03-15T02:35:50.804Z,12.82
2023-03-15T02:37:30.564Z,12.82
2023-03-15T02:39:10.312Z,12.82
2023-03-15T02:40:50.086Z,12.82
2023-03-15T02:42:29.851Z,12.82
2023-03-15T02:44:09.640Z,12.8
2023-03-15T02:45:49.367Z,12.82
2023-03-15T02:47:29.141Z,12.8
2023-03-15T02:49:09.019Z,12.81
2023-03-15T02:50:48.665Z,12.81
2023-03-15T02:52:28.431Z,12.8
2023-03-15T02:54:08.209Z,12.8
2023-03-15T02:55:48.066Z,12.8
2023-03-15T02:57:27.732Z,12.8
2023-03-15T02:59:07.499Z,12.81
2023-03-15T03:00:47.349Z,12.81
2023-03-15T03:02:27.020Z,12.81
2023-03-15T03:04:06.783Z,12.81
2023-03-15T03:05:46.547Z,12.8
2023-03-15T03:07:26.476Z,12.8
2023-03-15T03:09:06.096Z,12.8
2023-03-15T03:10:45.825Z,12.8
2023-03-15T03:12:25.638Z,12.8
2023-03-15T03:14:05.358Z,12.8
2023-03-15T03:15:45.128Z,12.81
2023-03-15T03:17:24.906Z,12.81
2023-03-15T03:19:04.645Z,12.8
2023-03-15T03:20:44.425Z,12.8
2023-03-15T03:22:24.182Z,12.8
2023-03-15T03:24:03.939Z,12.8
2023-03-15T03:25:43.710Z,12.8
2023-03-15T03:27:23.472Z,12.8
2023-03-15T03:29:03.320Z,12.8
2023-03-15T03:30:43.027Z,12.8
2023-03-15T03:32:22.773Z,12.8
2023-03-15T03:34:02.632Z,12.8
2023-03-15T03:35:42.309Z,12.79
2023-03-15T03:37:22.071Z,12.8
2023-03-15T03:39:01.866Z,12.8
2023-03-15T03:40:41.606Z,12.79
2023-03-15T03:42:21.333Z,12.79
2023-03-15T03:44:01.178Z,12.78
2023-03-15T03:45:40.867Z,12.79
2023-03-15T03:47:20.638Z,12.79
2023-03-15T03:49:00.392Z,12.79
2023-03-15T03:50:40.162Z,12.78
2023-03-15T03:52:19.916Z,12.79
2023-03-15T03:53:59.685Z,12.79
2023-03-15T03:55:39.445Z,12.77
2023-03-15T03:57:19.227Z,12.79
2023-03-15T03:58:59.021Z,12.79
2023-03-15T04:00:38.748Z,12.79
2023-03-15T04:02:18.505Z,12.79
2023-03-15T04:03:58.284Z,12.78
2023-03-15T04:05:38.047Z,12.79
2023-03-15T04:07:17.821Z,12.79
2023-03-15T04:08:57.602Z,12.79
2023-03-15T04:10:37.404Z,12.78
2023-03-15T04:12:17.081Z,12.79
2023-03-15T04:13:56.916Z,12.79
2023-03-15T04:15:36.627Z,12.78
2023-03-15T04:17:16.368Z,12.78
2023-03-15T04:18:56.156Z,12.78
2023-03-15T04:20:35.915Z,12.78
2023-03-15T04:22:15.730Z,12.78
2023-03-15T04:23:55.436Z,12.78
2023-03-15T04:25:35.207Z,12.77
2023-03-15T04:27:14.977Z,12.77
2023-03-15T04:28:54.733Z,12.76
2023-03-15T04:30:34.503Z,12.79
2023-03-15T04:32:14.250Z,12.78
2023-03-15T04:33:54.019Z,12.77
2023-03-15T04:35:33.781Z,12.78
2023-03-15T04:37:13.551Z,12.78
2023-03-15T04:38:53.306Z,12.77
2023-03-15T04:40:33.077Z,12.79
2023-03-15T04:42:12.854Z,12.78
2023-03-15T04:43:52.624Z,12.78
2023-03-15T04:45:32.402Z,12.78
2023-03-15T04:47:12.139Z,12.78
2023-03-15T04:48:51.954Z,12.77
2023-03-15T04:50:31.732Z,12.78
2023-03-15T04:52:11.443Z,12.78
2023-03-15T04:53:51.218Z,12.78
2023-03-15T04:55:30.949Z,12.78
2023-03-15T04:57:10.756Z,12.78
2023-03-15T04:58:50.483Z,12.78
2023-03-15T05:00:30.249Z,12.78
2023-03-15T05:02:10.026Z,12.78
2023-03-15T05:03:49.781Z,12.78
2023-03-15T05:05:29.533Z,12.78
2023-03-15T05:07:09.323Z,12.78
2023-03-15T05:08:49.076Z,12.78
2023-03-15T05:10:28.859Z,12.78
2023-03-15T05:12:08.590Z,12.77
2023-03-15T05:13:48.375Z,12.78
2023-03-15T05:15:28.121Z,12.78
2023-03-15T05:17:07.879Z,12.79
2023-03-15T05:18:47.676Z,12.79
2023-03-15T05:20:27.411Z,12.79
2023-03-15T05:22:07.182Z,12.79
2023-03-15T05:23:46.970Z,12.8
2023-03-15T05:25:26.712Z,12.81
2023-03-15T05:27:06.482Z,12.82
2023-03-15T05:28:46.245Z,12.82
2023-03-15T05:30:26.075Z,12.82
2023-03-15T05:32:05.789Z,12.83
2023-03-15T05:33:45.536Z,12.8
2023-03-15T05:35:25.279Z,12.83
2023-03-15T05:37:05.068Z,12.84
2023-03-15T05:38:44.832Z,12.86
2023-03-15T05:40:24.624Z,12.87
2023-03-15T05:42:04.357Z,12.88
2023-03-15T05:43:44.125Z,12.88
2023-03-15T05:45:23.900Z,12.92
2023-03-15T05:47:03.751Z,12.97
2023-03-15T05:48:43.476Z,13.02
2023-03-15T05:50:23.211Z,13.09
2023-03-15T05:52:03.044Z,13.13
2023-03-15T05:53:42.823Z,13.15
2023-03-15T05:55:22.475Z,13.18
2023-03-15T05:57:02.212Z,13.23
2023-03-15T05:58:42.020Z,13.26
2023-03-15T06:00:21.894Z,13.29
2023-03-15T06:02:01.522Z,13.28
2023-03-15T06:03:41.283Z,13.3
2023-03-15T06:05:21.041Z,13.3
2023-03-15T06:07:00.804Z,13.32
2023-03-15T06:08:40.564Z,13.32
2023-03-15T06:10:20.348Z,13.34
2023-03-15T06:12:00.089Z,13.37
2023-03-15T06:13:39.851Z,13.4
2023-03-15T06:15:19.622Z,13.47
2023-03-15T06:16:59.418Z,13.53
2023-03-15T06:18:39.155Z,13.62
2023-03-15T06:20:18.918Z,13.71
2023-03-15T06:21:58.674Z,13.84
2023-03-15T06:23:38.458Z,13.96
2023-03-15T06:25:18.206Z,14.05
2023-03-15T06:26:58.000Z,14.1
2023-03-15T06:28:37.734Z,14.12
2023-03-15T06:30:17.508Z,14.22
2023-03-15T06:31:57.285Z,14.17
2023-03-15T06:33:37.044Z,14.13
2023-03-15T06:35:16.822Z,14.08
2023-03-15T06:36:56.561Z,14.01
2023-03-15T06:38:36.333Z,13.95
2023-03-15T06:40:16.111Z,13.91
2023-03-15T06:41:55.856Z,13.87
2023-03-15T06:43:35.656Z,13.85
2023-03-15T06:45:15.382Z,13.85
2023-03-15T06:46:55.167Z,13.88
2023-03-15T06:48:34.912Z,13.91
2023-03-15T06:50:14.689Z,13.89
2023-03-15T06:51:54.430Z,13.81
2023-03-15T06:53:34.208Z,13.83
2023-03-15T06:55:13.960Z,13.82
2023-03-15T06:56:53.743Z,13.83
2023-03-15T06:58:33.491Z,13.87
2023-03-15T07:00:13.354Z,13.84
2023-03-15T07:01:53.047Z,13.88
2023-03-15T07:03:32.849Z,13.93
2023-03-15T07:05:12.536Z,14.04
2023-03-15T07:06:52.411Z,14.17
2023-03-15T07:08:32.087Z,14.27
2023-03-15T07:10:11.834Z,14.45
2023-03-15T07:11:51.628Z,14.34
2023-03-15T07:13:31.369Z,14.9
2023-03-15T07:15:11.196Z,14.74
2023-03-15T07:16:50.926Z,14.74
2023-03-15T07:18:30.778Z,14.73
2023-03-15T07:20:10.507Z,14.77
2023-03-15T07:21:50.235Z,14.75
2023-03-15T07:23:29.998Z,14.78
2023-03-15T07:25:09.725Z,14.85
2023-03-15T07:26:49.488Z,14.82
2023-03-15T07:28:29.293Z,14.79
2023-03-15T07:30:09.023Z,14.77
2023-03-15T07:31:48.779Z,14.76
2023-03-15T07:33:28.544Z,14.8
2023-03-15T07:35:08.311Z,14.78
2023-03-15T07:36:48.144Z,14.75
2023-03-15T07:38:27.833Z,14.74
2023-03-15T07:40:07.597Z,14.87
2023-03-15T07:41:47.360Z,14.82
2023-03-15T07:43:27.132Z,14.76
2023-03-15T07:45:06.886Z,14.76
2023-03-15T07:46:46.701Z,14.79
2023-03-15T07:48:26.416Z,14.8
2023-03-15T07:50:06.185Z,14.8
2023-03-15T07:51:45.940Z,14.78
2023-03-15T07:53:25.695Z,14.85
2023-03-15T07:55:05.483Z,14.77
2023-03-15T07:56:45.232Z,14.74
2023-03-15T07:58:24.990Z,14.8
2023-03-15T08:00:04.776Z,14.83
2023-03-15T08:01:44.626Z,14.76
2023-03-15T08:03:24.405Z,14.79
2023-03-15T08:05:04.036Z,14.82
2023-03-15T08:06:43.817Z,14.75
2023-03-15T08:08:23.598Z,14.79
2023-03-15T08:10:03.348Z,14.8
2023-03-15T08:11:43.097Z,14.83
2023-03-15T08:13:22.890Z,14.8
2023-03-15T08:15:02.706Z,14.76
2023-03-15T08:16:42.443Z,14.75
2023-03-15T08:18:22.165Z,14.84
2023-03-15T08:20:01.907Z,14.79
2023-03-15T08:21:41.683Z,14.73
2023-03-15T08:23:21.444Z,14.75
2023-03-15T08:25:01.348Z,14.71
2023-03-15T08:26:41.000Z,14.74
2023-03-15T08:28:20.753Z,14.86
2023-03-15T08:30:00.537Z,14.76
2023-03-15T08:31:40.282Z,14.77
2023-03-15T08:33:20.151Z,14.78
2023-03-15T08:34:59.798Z,14.74
2023-03-15T08:36:39.569Z,14.74
2023-03-15T08:38:19.349Z,14.77
2023-03-15T08:39:59.098Z,14.84
2023-03-15T08:41:38.880Z,14.82
2023-03-15T08:43:18.624Z,14.73
2023-03-15T08:44:58.389Z,14.86
2023-03-15T08:46:38.161Z,14.81
2023-03-15T08:48:17.913Z,14.84
2023-03-15T08:49:57.706Z,14.8
2023-03-15T08:51:37.471Z,14.83
2023-03-15T08:53:17.219Z,14.75
2023-03-15T08:54:57.045Z,14.75
2023-03-15T08:56:36.715Z,14.72
2023-03-15T08:58:16.493Z,14.8
2023-03-15T08:59:56.337Z,14.86
2023-03-15T09:01:36.052Z,14.77
2023-03-15T09:03:15.765Z,14.83
2023-03-15T09:04:55.546Z,14.79
2023-03-15T09:06:35.333Z,14.8
2023-03-15T09:08:15.083Z,14.75
2023-03-15T09:09:54.835Z,14.72
2023-03-15T09:11:34.597Z,14.23
2023-03-15T09:13:14.356Z,14.1
2023-03-15T09:14:54.151Z,14.11
2023-03-15T09:16:33.939Z,14.12
2023-03-15T09:18:13.656Z,14.12
2023-03-15T09:19:53.486Z,14.12
2023-03-15T09:21:33.184Z,14.13
2023-03-15T09:23:12.985Z,14.12
2023-03-15T09:24:52.844Z,14.15
2023-03-15T09:26:32.494Z,14.17
2023-03-15T09:28:12.254Z,14.21
2023-03-15T09:29:52.002Z,14.21
2023-03-15T09:31:31.770Z,14.24
2023-03-15T09:33:11.535Z,14.14
2023-03-15T09:34:51.295Z,14.14
2023-03-15T09:36:31.060Z,14.13
2023-03-15T09:38:10.833Z,14.11
2023-03-15T09:39:50.592Z,14.12
2023-03-15T09:41:30.366Z,14.1
2023-03-15T09:43:10.165Z,14.12
2023-03-15T09:44:49.891Z,14.14
2023-03-15T09:46:29.659Z,14.15
2023-03-15T09:48:09.513Z,14.18
2023-03-15T09:49:49.241Z,14.21
2023-03-15T09:51:28.956Z,14.1
2023-03-15T09:53:08.710Z,14.18
2023-03-15T09:54:48.465Z,14.18
2023-03-15T09:56:28.250Z,14.24
2023-03-15T09:58:08.054Z,14.16
2023-03-15T09:59:47.768Z,14.11
2023-03-15T10:01:27.565Z,14.2
2023-03-15T10:03:07.289Z,14.14
2023-03-15T10:04:47.066Z,14.12
2023-03-15T10:06:26.947Z,14.12
2023-03-15T10:08:06.602Z,14.13
2023-03-15T10:09:46.381Z,14.19
2023-03-15T10:11:26.162Z,14.12
2023-03-15T10:13:05.946Z,14.17
2023-03-15T10:14:45.697Z,14.19
2023-03-15T10:16:25.417Z,14.22
2023-03-15T10:18:05.159Z,14.12
2023-03-15T10:19:44.915Z,14.16
2023-03-15T10:21:24.690Z,14.16
2023-03-15T10:23:04.502Z,14.13
2023-03-15T10:24:44.226Z,14.18
2023-03-15T10:26:24.082Z,14.1
2023-03-15T10:28:03.748Z,14.14
2023-03-15T10:29:43.518Z,14.11
2023-03-15T10:31:23.303Z,14.25
2023-03-15T10:33:03.030Z,14.18
2023-03-15T10:34:42.836Z,14.11
2023-03-15T10:36:22.559Z,14.24
2023-03-15T10:38:02.384Z,14.3
2023-03-15T10:39:42.085Z,14.1
2023-03-15T10:41:21.852Z,14.12
2023-03-15T10:43:01.614Z,14.17
2023-03-15T10:44:41.384Z,14.1
2023-03-15T10:46:21.176Z,14.15
2023-03-15T10:48:01.019Z,14.25
2023-03-15T10:49:40.695Z,14.15
2023-03-15T10:51:20.465Z,14.23
2023-03-15T10:53:00.205Z,14.21
2023-03-15T10:54:39.969Z,14.17
2023-03-15T10:56:19.732Z,14.15
2023-03-15T10:57:59.487Z,14.18
2023-03-15T10:59:39.343Z,14.11
2023-03-15T11:01:19.010Z,14.18
2023-03-15T11:02:58.785Z,14.13
2023-03-15T11:04:38.541Z,14.12
2023-03-15T11:06:18.341Z,14.11
2023-03-15T11:07:58.077Z,14.23
2023-03-15T11:09:37.832Z,14.19
2023-03-15T11:11:17.613Z,14.1
2023-03-15T11:12:57.359Z,14.1
2023-03-15T11:14:37.114Z,14.11
2023-03-15T11:16:16.889Z,14.13
2023-03-15T11:17:56.767Z,14.2
2023-03-15T11:19:36.525Z,14.07
2023-03-15T11:21:16.195Z,14.08
2023-03-15T11:22:55.963Z,14.13
2023-03-15T11:24:35.699Z,14.2
2023-03-15T11:26:15.595Z,14.08
2023-03-15T11:27:55.251Z,14.19
2023-03-15T11:29:35.049Z,14.21
2023-03-15T11:31:14.769Z,14.23
2023-03-15T11:32:54.522Z,14.07
2023-03-15T11:34:34.292Z,14.12
2023-03-15T11:37:53.822Z,14.21
2023-03-15T11:39:33.726Z,14.15
2023-03-15T11:41:13.396Z,14.06
2023-03-15T11:42:53.157Z,14.17
2023-03-15T11:44:32.884Z,14.09
2023-03-15T11:46:12.639Z,14.14
2023-03-15T11:47:52.418Z,14.08
2023-03-15T11:49:32.169Z,14.18
2023-03-15T11:51:11.930Z,14.1
2023-03-15T11:52:51.764Z,14.1
2023-03-15T11:54:31.466Z,14.13
2023-03-15T11:56:11.269Z,14.24
2023-03-15T11:57:50.983Z,14.12
2023-03-15T11:59:30.837Z,14.25
2023-03-15T12:01:10.507Z,14.16
2023-03-15T12:02:50.365Z,14.13
2023-03-15T12:04:30.100Z,14.08
2023-03-15T12:06:09.843Z,14.13
2023-03-15T12:07:49.580Z,14.14
2023-03-15T12:09:29.376Z,14.06
2023-03-15T12:11:09.103Z,14.23
2023-03-15T12:12:48.883Z,14.21
2023-03-15T12:14:28.708Z,14.16
2023-03-15T12:16:08.470Z,14.24
2023-03-15T12:17:48.223Z,14.07
2023-03-15T12:19:27.953Z,14.11
2023-03-15T12:21:07.751Z,14.19
2023-03-15T12:22:47.483Z,14.24
2023-03-15T12:24:27.215Z,14.11
2023-03-15T12:26:06.967Z,14.12
2023-03-15T12:27:46.802Z,14.09
2023-03-15T12:29:26.705Z,14.21
2023-03-15T12:31:06.387Z,14.2
2023-03-15T12:32:46.013Z,14.14
2023-03-15T12:34:25.792Z,14.19
2023-03-15T12:36:05.544Z,14.19
2023-03-15T12:37:45.383Z,14.12
2023-03-15T12:39:25.122Z,14.1
2023-03-15T12:41:04.906Z,14.18
2023-03-15T12:42:44.618Z,14.19
2023-03-15T12:44:24.413Z,14.19
2023-03-15T12:46:04.180Z,14.19
2023-03-15T12:47:43.907Z,14.09
2023-03-15T12:49:23.653Z,14.19
2023-03-15T12:51:03.587Z,14.09
2023-03-15T12:52:43.278Z,14.07
2023-03-15T12:54:23.001Z,14.05
2023-03-15T12:56:02.736Z,14.16
2023-03-15T12:57:42.474Z,14.22
2023-03-15T12:59:22.237Z,14.21
2023-03-15T13:01:02.002Z,14.08
2023-03-15T13:02:41.791Z,14.22
2023-03-15T13:04:21.525Z,14.19
2023-03-15T13:06:01.336Z,14.11
2023-03-15T13:07:41.058Z,14.06
2023-03-15T13:09:20.825Z,14.08
2023-03-15T13:11:00.697Z,14.11
2023-03-15T13:12:40.365Z,14.24
2023-03-15T13:14:20.146Z,14.1
2023-03-15T13:15:59.912Z,14.21
2023-03-15T13:17:39.651Z,14.1
2023-03-15T13:19:19.418Z,14.07
2023-03-15T13:20:59.173Z,14.13
2023-03-15T13:22:38.946Z,14.07
2023-03-15T13:24:18.725Z,14.2
2023-03-15T13:25:58.486Z,14.06
2023-03-15T13:27:38.238Z,14.08
2023-03-15T13:29:18.012Z,14.11
2023-03-15T13:30:57.811Z,14.18
2023-03-15T13:32:37.551Z,14.11
2023-03-15T13:34:17.308Z,14.19
2023-03-15T13:35:57.241Z,14.25
2023-03-15T13:37:36.810Z,14.21
2023-03-15T13:39:16.625Z,14.23
2023-03-15T13:40:56.375Z,14.05
2023-03-15T13:42:36.099Z,14.17
2023-03-15T13:44:15.920Z,14.05
2023-03-15T13:45:55.649Z,14.24
2023-03-15T13:47:35.393Z,14.15
2023-03-15T13:49:15.161Z,14.2
2023-03-15T13:50:54.949Z,14.08
2023-03-15T13:52:34.726Z,14.08
2023-03-15T13:54:14.453Z,14.2
2023-03-15T13:55:54.244Z,14.09
2023-03-15T13:57:33.980Z,14.17
2023-03-15T13:59:13.748Z,14.19
2023-03-15T14:00:53.522Z,14.07
2023-03-15T14:02:33.326Z,14.09
2023-03-15T14:04:13.041Z,14.1
2023-03-15T14:05:52.827Z,14.06
2023-03-15T14:07:32.585Z,14.14
2023-03-15T14:09:12.354Z,14.08
2023-03-15T14:10:52.096Z,14.13
2023-03-15T14:12:31.874Z,14.1
2023-03-15T14:14:11.627Z,14.17
2023-03-15T14:15:51.378Z,14.08
2023-03-15T14:17:31.159Z,14.06
2023-03-15T14:19:10.954Z,14.07
2023-03-15T14:20:50.690Z,14.08
2023-03-15T14:22:30.454Z,14.07
2023-03-15T14:24:10.281Z,14.15
2023-03-15T14:25:50.015Z,14.07
2023-03-15T14:27:29.844Z,14.06
2023-03-15T14:29:09.526Z,14.06
2023-03-15T14:30:49.282Z,14.13
2023-03-15T14:32:29.064Z,14.06
2023-03-15T14:34:08.784Z,14.13
2023-03-15T14:35:48.602Z,14.16
2023-03-15T14:37:28.349Z,14.09
2023-03-15T14:39:08.094Z,14.02
2023-03-15T14:40:47.916Z,14.27
2023-03-15T14:42:27.596Z,14.18
2023-03-15T14:44:07.352Z,14.25
2023-03-15T14:45:47.171Z,14.22
2023-03-15T14:47:26.938Z,14.05
2023-03-15T14:49:06.672Z,14.15
2023-03-15T14:50:46.434Z,14.16
2023-03-15T14:52:26.196Z,14.17
2023-03-15T14:54:05.961Z,14.1
2023-03-15T14:55:46.008Z,14.06
2023-03-15T14:57:25.479Z,14.17
2023-03-15T14:59:05.250Z,14.12
2023-03-15T15:00:45.053Z,14.12
2023-03-15T15:02:24.793Z,14.05
2023-03-15T15:04:04.542Z,14.14
2023-03-15T15:05:44.296Z,14.05
2023-03-15T15:07:24.075Z,14.2
2023-03-15T15:09:03.986Z,14.2
2023-03-15T15:10:43.611Z,14.17
2023-03-15T15:12:23.511Z,14.04
2023-03-15T15:14:03.115Z,14.05
2023-03-15T15:15:42.903Z,14.23
2023-03-15T15:17:22.746Z,14.06
2023-03-15T15:19:02.424Z,14.16
2023-03-15T15:20:42.177Z,14.04
2023-03-15T15:22:21.960Z,14.1
2023-03-15T15:24:01.731Z,14.06
2023-03-15T15:25:41.467Z,14.06
2023-03-15T15:27:21.245Z,14.09
2023-03-15T15:29:01.005Z,14.15
2023-03-15T15:30:40.786Z,14.13
2023-03-15T15:32:20.525Z,14.05
2023-03-15T15:34:00.290Z,14.1
2023-03-15T15:35:40.100Z,14.13
2023-03-15T15:37:19.861Z,14.14
2023-03-15T15:38:59.576Z,14.06
2023-03-15T15:40:39.343Z,14.05
2023-03-15T15:42:19.177Z,14.09
2023-03-15T15:43:58.919Z,14.2
2023-03-15T15:45:38.635Z,14.23
2023-03-15T15:47:18.439Z,14.06
2023-03-15T15:48:58.158Z,14.16
2023-03-15T15:50:38.108Z,14.11
2023-03-15T15:52:17.763Z,14.2
2023-03-15T15:53:57.483Z,14.13
2023-03-15T15:55:37.225Z,14.06
2023-03-15T15:57:16.987Z,14.16
2023-03-15T15:58:56.737Z,14.08
2023-03-15T16:00:36.505Z,14.19
2023-03-15T16:02:16.262Z,14.08
2023-03-15T16:03:56.042Z,14.09
2023-03-15T16:05:35.827Z,14.16
2023-03-15T16:07:15.567Z,14.25
2023-03-15T16:08:55.333Z,14.06
2023-03-15T16:10:35.093Z,14.23
2023-03-15T16:12:14.877Z,14.12
2023-03-15T16:13:54.649Z,14.24
2023-03-15T16:15:34.374Z,14.04
2023-03-15T16:17:14.142Z,14.15
2023-03-15T16:18:53.898Z,14.06
2023-03-15T16:20:33.683Z,13.66
2023-03-15T16:22:13.472Z,13.43
2023-03-15T16:23:53.220Z,13.37
2023-03-15T16:25:33.005Z,13.33
2023-03-15T16:27:12.785Z,13.32
2023-03-15T16:28:52.493Z,13.29
2023-03-15T16:30:32.257Z,13.28
2023-03-15T16:32:12.226Z,13.28
2023-03-15T16:33:51.787Z,13.29
2023-03-15T16:35:31.597Z,13.26
2023-03-15T16:37:11.308Z,13.28
2023-03-15T16:38:51.087Z,13.31
2023-03-15T16:40:30.850Z,13.69
2023-03-15T16:42:10.602Z,14.67
2023-03-15T16:43:50.361Z,14.75
2023-03-15T16:45:30.248Z,14.73
2023-03-15T16:47:09.897Z,14.68
2023-03-15T16:48:49.682Z,14.74
2023-03-15T16:50:29.426Z,14.69
2023-03-15T16:52:09.183Z,14.82
2023-03-15T16:53:49.142Z,14.72
2023-03-15T16:55:28.712Z,14.76
2023-03-15T16:57:08.512Z,13.73
2023-03-15T16:58:48.357Z,13.43
2023-03-15T17:00:28.005Z,13.38
2023-03-15T17:02:07.763Z,13.34
2023-03-15T17:03:47.707Z,13.31
2023-03-15T17:05:27.293Z,13.29
2023-03-15T17:07:07.048Z,13.27
2023-03-15T17:08:46.822Z,13.24
2023-03-15T17:10:26.612Z,13.23
2023-03-15T17:12:06.487Z,13.21
2023-03-15T17:13:46.112Z,13.18
2023-03-15T17:15:25.890Z,13.18
2023-03-15T17:17:05.815Z,13.17
2023-03-15T17:18:45.406Z,13.16
2023-03-15T17:20:25.163Z,13.15
2023-03-15T17:22:05.115Z,13.15
2023-03-15T17:23:44.855Z,13.14
2023-03-15T17:25:24.456Z,13.12
2023-03-15T17:27:04.270Z,13.11
2023-03-15T17:28:44.200Z,13.12
2023-03-15T17:30:23.989Z,13.1
2023-03-15T17:32:03.759Z,13.11
2023-03-15T17:33:43.300Z,13.11
2023-03-15T17:35:23.045Z,13.09
2023-03-15T17:37:02.823Z,13.09
2023-03-15T17:38:42.749Z,13.08
2023-03-15T17:40:22.400Z,13.1
2023-03-15T17:42:02.094Z,13.09
2023-03-15T17:43:41.948Z,13.09
2023-03-15T17:45:21.638Z,13.09
2023-03-15T17:47:01.472Z,13.09
2023-03-15T17:48:41.168Z,13.07
2023-03-15T17:50:20.912Z,13.09
2023-03-15T17:52:00.767Z,13.08
2023-03-15T17:53:40.553Z,13.08
2023-03-15T17:55:20.386Z,13.08
2023-03-15T17:57:00.120Z,13.07
2023-03-15T17:58:39.812Z,13.07
2023-03-15T18:00:19.507Z,13.06
2023-03-15T18:01:59.280Z,13.07
2023-03-15T18:03:39.073Z,13.07
2023-03-15T18:05:18.909Z,13.06
2023-03-15T18:06:58.579Z,13.07
2023-03-15T18:08:38.361Z,13.07
2023-03-15T18:10:18.090Z,13.07
2023-03-15T18:11:57.859Z,13.06
2023-03-15T18:13:37.609Z,13.06
2023-03-15T18:15:17.407Z,13.06
2023-03-15T18:16:57.140Z,13.07
2023-03-15T18:18:36.922Z,13.05
2023-03-15T18:20:16.669Z,13.05
2023-03-15T18:21:56.424Z,13.05
2023-03-15T18:23:36.206Z,13.05
2023-03-15T18:25:15.994Z,13.05
2023-03-15T18:26:55.749Z,13.06
2023-03-15T18:28:35.503Z,13.05
2023-03-15T18:30:15.247Z,13.06
2023-03-15T18:31:55.011Z,13.04
2023-03-15T18:33:34.778Z,13.05
2023-03-15T18:35:14.563Z,13.05
2023-03-15T18:36:54.302Z,13.05
2023-03-15T18:38:34.075Z,13.05
2023-03-15T18:40:13.857Z,13.04
2023-03-15T18:41:53.600Z,13.03
2023-03-15T18:43:33.430Z,13.03
2023-03-15T18:45:13.115Z,13.03
2023-03-15T18:46:52.907Z,13.05
2023-03-15T18:48:32.740Z,13.04
2023-03-15T18:50:12.429Z,13.03
2023-03-15T18:51:52.210Z,13.04
2023-03-15T18:53:31.991Z,13.04
2023-03-15T18:55:11.716Z,13.04
2023-03-15T18:56:51.521Z,13.04
2023-03-15T18:58:31.227Z,13.04
2023-03-15T19:00:11.028Z,13.04
2023-03-15T19:01:50.818Z,13.03
2023-03-15T19:03:30.596Z,13.03
2023-03-15T19:05:10.361Z,13.03
2023-03-15T19:06:50.058Z,13.03
2023-03-15T19:08:29.814Z,13.03
2023-03-15T19:10:09.588Z,13.03
2023-03-15T19:11:49.358Z,13.03
2023-03-15T19:13:29.210Z,13.03
2023-03-15T19:15:08.911Z,13.03
2023-03-15T19:16:48.640Z,13.03
2023-03-15T19:18:28.407Z,13.02
2023-03-15T19:20:08.156Z,13.03
2023-03-15T19:21:47.936Z,13.02
2023-03-15T19:23:27.717Z,13.02
2023-03-15T19:25:07.528Z,13.02
2023-03-15T19:26:47.303Z,13.02
2023-03-15T19:28:27.071Z,13.02
2023-03-15T19:30:06.825Z,13.02
2023-03-15T19:31:46.506Z,13.02
2023-03-15T19:33:26.270Z,13.02
2023-03-15T19:35:06.036Z,13.02
2023-03-15T19:36:45.800Z,13.02
2023-03-15T19:38:25.558Z,13.02
2023-03-15T19:40:05.364Z,13.02
2023-03-15T19:41:45.092Z,13.02
2023-03-15T19:43:24.847Z,13.02
2023-03-15T19:45:04.674Z,13.02
2023-03-15T19:46:44.378Z,13.01
2023-03-15T19:48:24.146Z,13.02
2023-03-15T19:50:03.921Z,13.01
2023-03-15T19:51:43.756Z,13.01
2023-03-15T19:53:23.546Z,13.01
2023-03-15T19:55:03.220Z,13.01
2023-03-15T19:56:42.985Z,13.01
2023-03-15T19:58:22.858Z,13.01
2023-03-15T20:00:02.497Z,13.01
2023-03-15T20:01:42.250Z,13.01
2023-03-15T20:03:22.101Z,13.01
2023-03-15T20:05:01.799Z,13.01
2023-03-15T20:06:41.558Z,13.01
2023-03-15T20:08:21.328Z,12.99
2023-03-15T20:10:01.079Z,13.01
2023-03-15T20:11:40.858Z,13.01
2023-03-15T20:13:20.721Z,13
2023-03-15T20:15:00.349Z,13
2023-03-15T20:16:40.132Z,12.99
2023-03-15T20:18:19.903Z,13.01
2023-03-15T20:19:59.651Z,13.01
2023-03-15T20:21:39.483Z,13
2023-03-15T20:23:19.204Z,13.01
2023-03-15T20:24:58.983Z,13.01
2023-03-15T20:26:38.701Z,12.99
2023-03-15T20:28:18.543Z,12.99
2023-03-15T20:29:58.258Z,13
2023-03-15T20:31:38.008Z,13
2023-03-15T20:33:17.780Z,13
2023-03-15T20:34:57.630Z,12.99
2023-03-15T20:36:37.338Z,12.99
2023-03-15T20:38:17.087Z,12.99
2023-03-15T20:39:56.837Z,12.99
2023-03-15T20:41:36.594Z,12.99
2023-03-15T20:43:16.426Z,12.99
2023-03-15T20:44:56.327Z,12.99
2023-03-15T20:46:35.896Z,13
2023-03-15T20:48:15.660Z,12.99
2023-03-15T20:49:55.400Z,12.99
2023-03-15T20:51:35.186Z,12.99
2023-03-15T20:53:14.936Z,12.99
2023-03-15T20:54:54.711Z,12.99
2023-03-15T20:56:34.518Z,12.99
2023-03-15T20:58:14.295Z,12.99
2023-03-15T20:59:53.988Z,12.99
2023-03-15T21:01:33.803Z,12.99
2023-03-15T21:03:13.514Z,12.99
2023-03-15T21:04:53.321Z,12.99
2023-03-15T21:06:33.068Z,12.98
2023-03-15T21:08:12.821Z,12.98
2023-03-15T21:09:52.623Z,12.98
2023-03-15T21:11:32.549Z,12.99
2023-03-15T21:13:12.110Z,12.98
2023-03-15T21:14:51.933Z,12.98
2023-03-15T21:16:31.677Z,12.97
2023-03-15T21:18:11.408Z,12.98
2023-03-15T21:19:51.159Z,12.98
2023-03-15T21:21:30.897Z,12.98
2023-03-15T21:23:10.696Z,12.98
2023-03-15T21:24:50.434Z,12.98
2023-03-15T21:26:30.196Z,12.98
2023-03-15T21:28:09.968Z,12.98
2023-03-15T21:29:49.728Z,12.97
2023-03-15T21:31:29.501Z,12.98